Time,TemperatureF,DewpointF,PressureIn,WindDirection,WindDirectionDegrees,WindSpeedMPH,WindSpeedGustMPH,Humidity,HourlyPrecipIn,Conditions,Clouds,dailyrainin,SolarRadiationWatts/m^2,SoftwareType,DateUTC
2013-08-26 00:07:00,74.2,68.0,30.06,SSW,205,1.0,3.0,81,0.00,,,0.00,0,weatherlink.com 1.10,2013-08-26 05:07:00,
2013-08-26 00:22:00,74.1,68.0,30.05,South,173,0.0,3.0,81,0.00,,,0.00,0,weatherlink.com 1.10,2013-08-26 05:22:00,
2013-08-26 00:37:00,74.0,68.0,30.04,SSW,193,1.0,2.0,82,0.00,,,0.00,0,weatherlink.com 1.10,2013-08-26 05:37:00,
2013-08-26 00:52:00,73.8,68.0,30.05,SSW,211,1.0,3.0,82,0.00,,,0.00,0,weatherlink.com 1.10,2013-08-26 05:52:00,
2013-08-26 01:07:00,73.7,68.0,30.05,SSW,207,0.0,3.0,82,0.00,,,0.00,0,weatherlink.com 1.10,2013-08-26 06:07:00,
2013-08-26 01:22:00,73.4,68.0,30.06,SW,221,1.0,3.0,82,0.00,,,0.00,0,weatherlink.com 1.10,2013-08-26 06:22:00,
2013-08-26 01:37:00,73.2,68.0,30.06,SSW,207,0.0,3.0,83,0.00,,,0.00,0,weatherlink.com 1.10,2013-08-26 06:37:00,
2013-08-26 01:52:00,73.0,68.0,30.06,SSW,207,1.0,2.0,84,0.00,,,0.00,0,weatherlink.com 1.10,2013-08-26 06:52:00,
2013-08-26 02:07:00,72.7,68.0,30.06,SSW,205,0.0,3.0,84,0.00,,,0.00,0,weatherlink.com 1.10,2013-08-26 07:07:00,
2013-08-26 02:22:00,72.4,68.0,30.06,SSW,205,0.0,2.0,85,0.00,,,0.00,0,weatherlink.com 1.10,2013-08-26 07:22:00,
2013-08-26 02:38:00,72.2,68.0,30.05,SSW,198,0.0,1.0,85,0.00,,,0.00,0,weatherlink.com 1.10,2013-08-26 07:38:00,
2013-08-26 02:53:00,71.8,68.0,30.04,SSW,198,0.0,2.0,86,0.00,,,0.00,0,weatherlink.com 1.10,2013-08-26 07:53:00,
2013-08-26 03:08:00,71.6,68.0,30.03,SSW,201,1.0,2.0,87,0.00,,,0.00,0,weatherlink.com 1.10,2013-08-26 08:08:00,
2013-08-26 03:23:00,71.4,67.0,30.04,SSW,202,0.0,1.0,87,0.00,,,0.00,0,weatherlink.com 1.10,2013-08-26 08:23:00,
2013-08-26 03:38:00,71.2,67.0,30.04,SSW,202,0.0,2.0,87,0.00,,,0.00,0,weatherlink.com 1.10,2013-08-26 08:38:00,
2013-08-26 03:53:00,71.1,67.0,30.04,SSW,202,0.0,1.0,87,0.00,,,0.00,0,weatherlink.com 1.10,2013-08-26 08:53:00,
2013-08-26 04:08:00,70.6,67.0,30.05,SSW,202,0.0,0.0,88,0.00,,,0.00,0,weatherlink.com 1.10,2013-08-26 09:08:00,
2013-08-26 04:23:00,70.1,67.0,30.05,SSW,202,0.0,0.0,89,0.00,,,0.00,0,weatherlink.com 1.10,2013-08-26 09:23:00,
2013-08-26 04:38:00,69.9,67.0,30.05,SSW,202,0.0,0.0,89,0.00,,,0.00,0,weatherlink.com 1.10,2013-08-26 09:38:00,
2013-08-26 04:53:00,69.6,67.0,30.05,SSW,202,0.0,1.0,90,0.00,,,0.00,0,weatherlink.com 1.10,2013-08-26 09:53:00,
2013-08-26 05:08:00,69.2,66.0,30.05,SSW,202,0.0,0.0,90,0.00,,,0.00,0,weatherlink.com 1.10,2013-08-26 10:08:00,
2013-08-26 05:23:00,68.9,66.0,30.05,SSW,202,0.0,0.0,91,0.00,,,0.00,0,weatherlink.com 1.10,2013-08-26 10:23:00,
2013-08-26 05:38:00,68.8,66.0,30.05,SSW,202,0.0,0.0,91,0.00,,,0.00,0,weatherlink.com 1.10,2013-08-26 10:38:00,
2013-08-26 05:53:00,68.9,66.0,30.05,SSW,202,0.0,1.0,91,0.00,,,0.00,0,weatherlink.com 1.10,2013-08-26 10:53:00,
2013-08-26 06:08:00,69.1,66.0,30.06,SSW,202,0.0,1.0,91,0.00,,,0.00,0,weatherlink.com 1.10,2013-08-26 11:08:00,
2013-08-26 06:23:00,69.1,66.0,30.07,SSW,202,0.0,0.0,91,0.00,,,0.00,0,weatherlink.com 1.10,2013-08-26 11:23:00,
2013-08-26 06:38:00,69.4,67.0,30.07,SSW,202,0.0,0.0,91,0.00,,,0.00,11,weatherlink.com 1.10,2013-08-26 11:38:00,
2013-08-26 06:53:00,69.9,67.0,30.07,SSW,202,0.0,1.0,90,0.00,,,0.00,21,weatherlink.com 1.10,2013-08-26 11:53:00,
2013-08-26 07:08:00,70.6,67.0,30.07,SSW,202,0.0,1.0,89,0.00,,,0.00,42,weatherlink.com 1.10,2013-08-26 12:08:00,
2013-08-26 07:23:00,71.1,67.0,30.07,SSW,202,0.0,1.0,88,0.00,,,0.00,56,weatherlink.com 1.10,2013-08-26 12:23:00,
2013-08-26 07:38:00,71.7,68.0,30.08,SSW,202,0.0,1.0,87,0.00,,,0.00,62,weatherlink.com 1.10,2013-08-26 12:38:00,
2013-08-26 07:53:00,72.1,68.0,30.07,SSW,202,0.0,1.0,87,0.00,,,0.00,77,weatherlink.com 1.10,2013-08-26 12:53:00,
2013-08-26 08:08:00,72.4,68.0,30.07,SSW,202,0.0,2.0,86,0.00,,,0.00,98,weatherlink.com 1.10,2013-08-26 13:08:00,
2013-08-26 08:23:00,72.8,68.0,30.07,SSW,203,1.0,1.0,85,0.00,,,0.00,79,weatherlink.com 1.10,2013-08-26 13:23:00,
2013-08-26 08:38:00,73.2,69.0,30.11,NNW,335,0.0,12.0,86,0.00,,,0.00,139,weatherlink.com 1.10,2013-08-26 13:38:00,
2013-08-26 08:53:00,73.4,69.0,30.12,NNW,346,0.0,8.0,86,0.00,,,0.00,156,weatherlink.com 1.10,2013-08-26 13:53:00,
2013-08-26 09:08:00,74.3,70.0,30.11,North,355,2.0,4.0,85,0.00,,,0.00,162,weatherlink.com 1.10,2013-08-26 14:08:00,
2013-08-26 09:23:00,75.0,70.0,30.11,North,355,0.0,1.0,84,0.00,,,0.00,186,weatherlink.com 1.10,2013-08-26 14:23:00,
2013-08-26 09:38:00,76.1,70.0,30.10,North,355,0.0,0.0,82,0.00,,,0.00,269,weatherlink.com 1.10,2013-08-26 14:38:00,
2013-08-26 09:53:00,77.2,71.0,30.10,North,355,0.0,2.0,80,0.00,,,0.00,265,weatherlink.com 1.10,2013-08-26 14:53:00,
2013-08-26 10:08:00,78.0,71.0,30.10,North,355,1.0,1.0,80,0.00,,,0.00,241,weatherlink.com 1.10,2013-08-26 15:08:00,
2013-08-26 10:24:00,78.8,71.0,30.10,North,355,0.0,1.0,78,0.00,,,0.00,250,weatherlink.com 1.10,2013-08-26 15:24:00,
2013-08-26 10:39:00,79.3,72.0,30.10,North,355,0.0,1.0,79,0.00,,,0.00,258,weatherlink.com 1.10,2013-08-26 15:39:00,
2013-08-26 10:54:00,80.3,72.0,30.10,North,355,3.0,5.0,76,0.00,,,0.00,339,weatherlink.com 1.10,2013-08-26 15:54:00,
2013-08-26 11:09:00,80.3,71.0,30.10,North,355,3.0,8.0,74,0.00,,,0.00,338,weatherlink.com 1.10,2013-08-26 16:09:00,
2013-08-26 11:24:00,80.3,71.0,30.07,NNW,348,0.0,5.0,74,0.00,,,0.00,360,weatherlink.com 1.10,2013-08-26 16:24:00,
2013-08-26 11:39:00,81.2,71.0,30.07,East,81,0.0,2.0,72,0.00,,,0.00,554,weatherlink.com 1.10,2013-08-26 16:39:00,
2013-08-26 11:53:00,82.4,72.0,30.05,ESE,120,0.0,2.0,70,0.00,,,0.00,585,weatherlink.com 1.10,2013-08-26 16:53:00,
2013-08-26 12:09:00,83.6,72.0,30.04,SE,136,0.0,2.0,68,0.00,,,0.00,671,weatherlink.com 1.10,2013-08-26 17:09:00,
2013-08-26 12:24:00,84.4,72.0,30.04,South,171,0.0,5.0,66,0.00,,,0.00,740,weatherlink.com 1.10,2013-08-26 17:24:00,
2013-08-26 12:39:00,84.8,71.0,30.02,South,173,2.0,2.0,64,0.00,,,0.00,679,weatherlink.com 1.10,2013-08-26 17:39:00,
2013-08-26 12:54:00,84.3,72.0,30.02,SSW,198,3.0,3.0,67,0.00,,,0.00,267,weatherlink.com 1.10,2013-08-26 17:54:00,
2013-08-26 13:09:00,84.2,73.0,30.01,SSW,196,1.0,3.0,69,0.00,,,0.00,707,weatherlink.com 1.10,2013-08-26 18:09:00,
2013-08-26 13:24:00,84.5,75.0,30.00,SSW,209,1.0,4.0,72,0.00,,,0.00,682,weatherlink.com 1.10,2013-08-26 18:24:00,
2013-08-26 13:39:00,84.7,72.0,30.00,SSE,164,1.0,5.0,65,0.00,,,0.00,696,weatherlink.com 1.10,2013-08-26 18:39:00,
2013-08-26 13:54:00,85.6,72.0,29.99,SSW,205,0.0,5.0,64,0.00,,,0.00,650,weatherlink.com 1.10,2013-08-26 18:54:00,
2013-08-26 14:09:00,86.1,72.0,29.98,South,186,2.0,3.0,63,0.00,,,0.00,744,weatherlink.com 1.10,2013-08-26 19:09:00,
2013-08-26 14:24:00,87.1,72.0,29.98,SSW,211,1.0,4.0,62,0.00,,,0.00,557,weatherlink.com 1.10,2013-08-26 19:24:00,
2013-08-26 14:39:00,87.9,74.0,29.97,SSW,209,2.0,5.0,63,0.00,,,0.00,728,weatherlink.com 1.10,2013-08-26 19:39:00,
2013-08-26 14:54:00,87.9,74.0,29.97,WSW,252,3.0,6.0,64,0.00,,,0.00,694,weatherlink.com 1.10,2013-08-26 19:54:00,
2013-08-26 15:09:00,88.2,75.0,29.96,WSW,238,6.0,7.0,64,0.00,,,0.00,675,weatherlink.com 1.10,2013-08-26 20:09:00,
2013-08-26 15:24:00,88.5,76.0,29.96,SW,221,4.0,5.0,66,0.00,,,0.00,647,weatherlink.com 1.10,2013-08-26 20:24:00,
2013-08-26 15:39:00,88.3,76.0,29.95,SSW,213,3.0,7.0,67,0.00,,,0.00,617,weatherlink.com 1.10,2013-08-26 20:39:00,
2013-08-26 15:55:00,88.6,76.0,29.95,SSW,211,2.0,5.0,66,0.00,,,0.00,584,weatherlink.com 1.10,2013-08-26 20:55:00,
2013-08-26 16:10:00,88.8,76.0,29.95,SSW,207,0.0,6.0,66,0.00,,,0.00,545,weatherlink.com 1.10,2013-08-26 21:10:00,
2013-08-26 16:25:00,88.8,76.0,29.95,WSW,250,5.0,9.0,66,0.00,,,0.00,512,weatherlink.com 1.10,2013-08-26 21:25:00,
2013-08-26 16:40:00,88.5,76.0,29.95,SSW,213,3.0,7.0,67,0.00,,,0.00,471,weatherlink.com 1.10,2013-08-26 21:40:00,
2013-08-26 16:55:00,88.4,77.0,29.95,SW,216,0.0,7.0,68,0.00,,,0.00,431,weatherlink.com 1.10,2013-08-26 21:55:00,
2013-08-26 17:10:00,88.7,77.0,29.95,SSW,212,1.0,5.0,69,0.00,,,0.00,381,weatherlink.com 1.10,2013-08-26 22:10:00,
2013-08-26 17:25:00,88.5,77.0,29.94,SSW,201,1.0,3.0,69,0.00,,,0.00,178,weatherlink.com 1.10,2013-08-26 22:25:00,
2013-08-26 17:40:00,87.9,77.0,29.94,SW,221,1.0,3.0,71,0.00,,,0.00,156,weatherlink.com 1.10,2013-08-26 22:40:00,
2013-08-26 17:55:00,87.9,77.0,29.94,SSW,209,1.0,3.0,71,0.00,,,0.00,229,weatherlink.com 1.10,2013-08-26 22:55:00,
2013-08-26 18:10:00,87.2,77.0,29.93,SSW,211,1.0,2.0,72,0.00,,,0.00,65,weatherlink.com 1.10,2013-08-26 23:10:00,
2013-08-26 18:25:00,86.7,77.0,29.93,SW,214,0.0,2.0,72,0.00,,,0.00,142,weatherlink.com 1.10,2013-08-26 23:25:00,
2013-08-26 18:40:00,86.6,77.0,29.93,SW,223,0.0,2.0,72,0.00,,,0.00,42,weatherlink.com 1.10,2013-08-26 23:40:00,
2013-08-26 18:55:00,85.5,76.0,29.93,SW,214,0.0,1.0,74,0.00,,,0.00,39,weatherlink.com 1.10,2013-08-26 23:55:00,
2013-08-26 19:10:00,85.0,77.0,29.92,SW,214,0.0,1.0,76,0.00,,,0.00,44,weatherlink.com 1.10,2013-08-27 00:10:00,
2013-08-26 19:25:00,84.5,77.0,29.93,SW,214,0.0,1.0,77,0.00,,,0.00,19,weatherlink.com 1.10,2013-08-27 00:25:00,
2013-08-26 19:40:00,83.6,76.0,29.92,SW,214,0.0,0.0,78,0.00,,,0.00,0,weatherlink.com 1.10,2013-08-27 00:40:00,
2013-08-26 19:55:00,82.5,76.0,29.93,SW,214,0.0,0.0,80,0.00,,,0.00,0,weatherlink.com 1.10,2013-08-27 00:55:00,
2013-08-26 20:10:00,81.4,76.0,29.94,SW,214,0.0,0.0,83,0.00,,,0.00,0,weatherlink.com 1.10,2013-08-27 01:10:00,
2013-08-26 20:25:00,80.4,75.0,29.94,SW,214,0.0,0.0,84,0.00,,,0.00,0,weatherlink.com 1.10,2013-08-27 01:25:00,
2013-08-26 20:40:00,79.6,75.0,29.94,SW,214,0.0,0.0,85,0.00,,,0.00,0,weatherlink.com 1.10,2013-08-27 01:40:00,
2013-08-26 20:55:00,78.9,74.0,29.94,SW,214,0.0,0.0,86,0.00,,,0.00,0,weatherlink.com 1.10,2013-08-27 01:55:00,
2013-08-26 21:10:00,78.7,75.0,29.94,SW,214,0.0,1.0,88,0.00,,,0.00,0,weatherlink.com 1.10,2013-08-27 02:10:00,
2013-08-26 21:25:00,78.5,75.0,29.94,SW,214,0.0,1.0,88,0.00,,,0.00,0,weatherlink.com 1.10,2013-08-27 02:25:00,
2013-08-26 21:40:00,78.3,75.0,29.94,SW,214,0.0,1.0,89,0.00,,,0.00,0,weatherlink.com 1.10,2013-08-27 02:40:00,
2013-08-26 21:55:00,78.2,75.0,29.94,SW,214,0.0,1.0,89,0.00,,,0.00,0,weatherlink.com 1.10,2013-08-27 02:55:00,
2013-08-26 22:10:00,78.3,75.0,29.94,SW,214,1.0,1.0,88,0.00,,,0.00,0,weatherlink.com 1.10,2013-08-27 03:10:00,
2013-08-26 22:25:00,78.1,74.0,29.94,SW,214,0.0,1.0,88,0.00,,,0.00,0,weatherlink.com 1.10,2013-08-27 03:25:00,
2013-08-26 22:40:00,78.0,74.0,29.93,SSW,213,0.0,1.0,88,0.00,,,0.00,0,weatherlink.com 1.10,2013-08-27 03:40:00,
2013-08-26 22:55:00,78.0,74.0,29.93,South,189,0.0,1.0,88,0.00,,,0.00,0,weatherlink.com 1.10,2013-08-27 03:55:00,
2013-08-26 23:10:00,77.8,74.0,29.93,South,190,0.0,1.0,87,0.00,,,0.00,0,weatherlink.com 1.10,2013-08-27 04:10:00,
2013-08-26 23:25:00,77.8,74.0,29.93,SSW,192,0.0,1.0,87,0.00,,,0.00,0,weatherlink.com 1.10,2013-08-27 04:25:00,
2013-08-26 23:40:00,77.8,73.0,29.92,South,190,0.0,2.0,86,0.00,,,0.00,0,weatherlink.com 1.10,2013-08-27 04:40:00,
2013-08-26 23:55:00,77.5,73.0,29.92,South,189,0.0,2.0,87,0.00,,,0.00,0,weatherlink.com 1.10,2013-08-27 04:55:00,